sensor_id;sensor_type;location;lat;lon;timestamp;P1;durP1;ratioP1;P2;durP2;ratioP2
52858;SDS011;38721;53.098;6.596;2023-03-23T00:01:08;19.27;;;15.13;;
52858;SDS011;38721;53.098;6.596;2023-03-23T00:03:39;18.33;;;14.25;;
52858;SDS011;38721;53.098;6.596;2023-03-23T00:06:06;20.75;;;14.35;;
52858;SDS011;38721;53.098;6.596;2023-03-23T00:08:33;19.02;;;15.57;;
52858;SDS011;38721;53.098;6.596;2023-03-23T00:11:11;18.23;;;14.70;;
52858;SDS011;38721;53.098;6.596;2023-03-23T00:13:45;24.75;;;14.52;;
52858;SDS011;38721;53.098;6.596;2023-03-23T00:16:16;13.90;;;12.05;;
52858;SDS011;38721;53.098;6.596;2023-03-23T00:18:43;17.95;;;13.20;;
52858;SDS011;38721;53.098;6.596;2023-03-23T00:21:14;15.35;;;12.77;;
52858;SDS011;38721;53.098;6.596;2023-03-23T00:23:40;16.92;;;11.43;;
52858;SDS011;38721;53.098;6.596;2023-03-23T00:26:10;15.80;;;12.32;;
52858;SDS011;38721;53.098;6.596;2023-03-23T00:28:36;14.80;;;11.73;;
52858;SDS011;38721;53.098;6.596;2023-03-23T00:31:06;14.07;;;11.30;;
52858;SDS011;38721;53.098;6.596;2023-03-23T00:33:33;15.60;;;12.20;;
52858;SDS011;38721;53.098;6.596;2023-03-23T00:36:03;18.70;;;11.82;;
52858;SDS011;38721;53.098;6.596;2023-03-23T00:38:31;13.93;;;12.02;;
52858;SDS011;38721;53.098;6.596;2023-03-23T00:40:56;20.63;;;12.05;;
52858;SDS011;38721;53.098;6.596;2023-03-23T00:43:22;15.35;;;11.30;;
52858;SDS011;38721;53.098;6.596;2023-03-23T00:45:50;15.25;;;10.98;;
52858;SDS011;38721;53.098;6.596;2023-03-23T00:48:19;14.20;;;11.77;;
52858;SDS011;38721;53.098;6.596;2023-03-23T00:50:49;15.07;;;9.93;;
52858;SDS011;38721;53.098;6.596;2023-03-23T00:53:15;15.85;;;10.23;;
52858;SDS011;38721;53.098;6.596;2023-03-23T00:55:41;13.15;;;9.77;;
52858;SDS011;38721;53.098;6.596;2023-03-23T00:58:08;9.50;;;7.00;;
52858;SDS011;38721;53.098;6.596;2023-03-23T01:00:34;14.30;;;8.73;;
52858;SDS011;38721;53.098;6.596;2023-03-23T01:03:00;10.30;;;9.18;;
52858;SDS011;38721;53.098;6.596;2023-03-23T01:05:26;9.32;;;8.32;;
52858;SDS011;38721;53.098;6.596;2023-03-23T01:07:57;13.73;;;9.18;;
52858;SDS011;38721;53.098;6.596;2023-03-23T01:10:24;12.90;;;8.80;;
52858;SDS011;38721;53.098;6.596;2023-03-23T01:12:51;9.63;;;7.07;;
52858;SDS011;38721;53.098;6.596;2023-03-23T01:15:21;11.65;;;8.27;;
52858;SDS011;38721;53.098;6.596;2023-03-23T01:17:47;10.05;;;7.80;;
52858;SDS011;38721;53.098;6.596;2023-03-23T01:20:15;10.15;;;8.52;;
52858;SDS011;38721;53.098;6.596;2023-03-23T01:22:42;12.52;;;9.65;;
52858;SDS011;38721;53.098;6.596;2023-03-23T01:25:08;13.57;;;9.10;;
52858;SDS011;38721;53.098;6.596;2023-03-23T01:27:35;14.60;;;9.95;;
52858;SDS011;38721;53.098;6.596;2023-03-23T01:30:01;13.77;;;9.50;;
52858;SDS011;38721;53.098;6.596;2023-03-23T01:32:29;12.50;;;9.40;;
52858;SDS011;38721;53.098;6.596;2023-03-23T01:34:55;16.38;;;8.98;;
52858;SDS011;38721;53.098;6.596;2023-03-23T01:37:21;13.52;;;8.65;;
52858;SDS011;38721;53.098;6.596;2023-03-23T01:39:51;12.15;;;8.30;;
52858;SDS011;38721;53.098;6.596;2023-03-23T01:42:20;13.35;;;9.15;;
52858;SDS011;38721;53.098;6.596;2023-03-23T01:47:16;13.55;;;7.85;;
52858;SDS011;38721;53.098;6.596;2023-03-23T01:49:44;13.13;;;7.53;;
52858;SDS011;38721;53.098;6.596;2023-03-23T01:52:14;15.07;;;7.72;;
52858;SDS011;38721;53.098;6.596;2023-03-23T01:54:43;11.63;;;7.40;;
52858;SDS011;38721;53.098;6.596;2023-03-23T01:57:12;13.63;;;6.90;;
52858;SDS011;38721;53.098;6.596;2023-03-23T01:59:41;12.90;;;7.38;;
52858;SDS011;38721;53.098;6.596;2023-03-23T02:02:10;8.88;;;7.10;;
52858;SDS011;38721;53.098;6.596;2023-03-23T02:04:37;11.95;;;6.80;;
52858;SDS011;38721;53.098;6.596;2023-03-23T02:07:04;9.63;;;6.97;;
52858;SDS011;38721;53.098;6.596;2023-03-23T02:09:30;9.57;;;6.75;;
52858;SDS011;38721;53.098;6.596;2023-03-23T02:11:55;10.60;;;6.15;;
52858;SDS011;38721;53.098;6.596;2023-03-23T02:14:22;9.85;;;6.10;;
52858;SDS011;38721;53.098;6.596;2023-03-23T02:17:39;10.55;;;6.07;;
52858;SDS011;38721;53.098;6.596;2023-03-23T02:25:51;9.27;;;5.60;;
52858;SDS011;38721;53.098;6.596;2023-03-23T02:31:17;9.23;;;6.05;;
52858;SDS011;38721;53.098;6.596;2023-03-23T02:36:39;6.63;;;5.20;;
52858;SDS011;38721;53.098;6.596;2023-03-23T02:41:51;7.20;;;5.60;;
52858;SDS011;38721;53.098;6.596;2023-03-23T02:44:23;9.77;;;5.22;;
52858;SDS011;38721;53.098;6.596;2023-03-23T02:46:54;7.20;;;5.03;;
52858;SDS011;38721;53.098;6.596;2023-03-23T02:49:22;10.95;;;5.07;;
52858;SDS011;38721;53.098;6.596;2023-03-23T02:51:50;11.95;;;5.18;;
52858;SDS011;38721;53.098;6.596;2023-03-23T02:54:18;7.80;;;4.72;;
52858;SDS011;38721;53.098;6.596;2023-03-23T02:56:47;8.30;;;5.28;;
52858;SDS011;38721;53.098;6.596;2023-03-23T02:59:15;7.72;;;5.20;;
52858;SDS011;38721;53.098;6.596;2023-03-23T03:04:07;10.85;;;5.22;;
52858;SDS011;38721;53.098;6.596;2023-03-23T03:15:25;9.40;;;4.43;;
52858;SDS011;38721;53.098;6.596;2023-03-23T03:18:07;8.13;;;4.85;;
52858;SDS011;38721;53.098;6.596;2023-03-23T03:20:48;7.35;;;4.47;;
52858;SDS011;38721;53.098;6.596;2023-03-23T03:23:18;6.57;;;4.32;;
52858;SDS011;38721;53.098;6.596;2023-03-23T03:25:46;11.20;;;5.25;;
52858;SDS011;38721;53.098;6.596;2023-03-23T03:28:17;8.90;;;4.45;;
52858;SDS011;38721;53.098;6.596;2023-03-23T03:30:51;7.72;;;4.50;;
52858;SDS011;38721;53.098;6.596;2023-03-23T03:33:20;10.00;;;4.38;;
52858;SDS011;38721;53.098;6.596;2023-03-23T03:35:53;8.85;;;4.40;;
52858;SDS011;38721;53.098;6.596;2023-03-23T03:38:20;7.65;;;4.20;;
52858;SDS011;38721;53.098;6.596;2023-03-23T03:40:46;7.05;;;3.85;;
52858;SDS011;38721;53.098;6.596;2023-03-23T03:43:12;9.70;;;4.10;;
52858;SDS011;38721;53.098;6.596;2023-03-23T03:45:38;5.57;;;3.95;;
52858;SDS011;38721;53.098;6.596;2023-03-23T03:48:04;11.85;;;4.82;;
52858;SDS011;38721;53.098;6.596;2023-03-23T03:50:33;7.97;;;4.10;;
52858;SDS011;38721;53.098;6.596;2023-03-23T03:52:58;7.40;;;4.57;;
52858;SDS011;38721;53.098;6.596;2023-03-23T03:55:24;10.13;;;4.78;;
52858;SDS011;38721;53.098;6.596;2023-03-23T03:57:53;8.15;;;4.78;;
52858;SDS011;38721;53.098;6.596;2023-03-23T04:00:22;8.43;;;4.65;;
52858;SDS011;38721;53.098;6.596;2023-03-23T04:02:49;7.20;;;5.15;;
52858;SDS011;38721;53.098;6.596;2023-03-23T04:05:20;9.82;;;4.88;;
52858;SDS011;38721;53.098;6.596;2023-03-23T04:07:47;9.23;;;5.38;;
52858;SDS011;38721;53.098;6.596;2023-03-23T04:10:17;8.70;;;5.38;;
52858;SDS011;38721;53.098;6.596;2023-03-23T04:12:47;10.55;;;5.57;;
52858;SDS011;38721;53.098;6.596;2023-03-23T04:15:13;7.07;;;5.30;;
52858;SDS011;38721;53.098;6.596;2023-03-23T04:17:39;9.60;;;5.78;;
52858;SDS011;38721;53.098;6.596;2023-03-23T04:20:06;8.20;;;5.90;;
52858;SDS011;38721;53.098;6.596;2023-03-23T04:22:33;10.52;;;5.22;;
52858;SDS011;38721;53.098;6.596;2023-03-23T04:25:00;8.80;;;5.35;;
52858;SDS011;38721;53.098;6.596;2023-03-23T04:27:29;9.15;;;5.00;;
52858;SDS011;38721;53.098;6.596;2023-03-23T04:29:55;8.18;;;5.60;;
52858;SDS011;38721;53.098;6.596;2023-03-23T04:32:23;9.55;;;5.57;;
52858;SDS011;38721;53.098;6.596;2023-03-23T04:34:50;9.02;;;5.35;;
52858;SDS011;38721;53.098;6.596;2023-03-23T04:37:17;7.75;;;5.00;;
52858;SDS011;38721;53.098;6.596;2023-03-23T04:39:42;9.55;;;5.43;;
52858;SDS011;38721;53.098;6.596;2023-03-23T04:42:10;8.13;;;5.72;;
52858;SDS011;38721;53.098;6.596;2023-03-23T04:44:36;8.60;;;5.43;;
52858;SDS011;38721;53.098;6.596;2023-03-23T04:47:01;9.80;;;5.40;;
52858;SDS011;38721;53.098;6.596;2023-03-23T04:49:27;8.23;;;5.15;;
52858;SDS011;38721;53.098;6.596;2023-03-23T04:51:54;9.68;;;5.13;;
52858;SDS011;38721;53.098;6.596;2023-03-23T04:54:21;7.80;;;5.70;;
52858;SDS011;38721;53.098;6.596;2023-03-23T04:56:47;7.13;;;5.15;;
52858;SDS011;38721;53.098;6.596;2023-03-23T04:59:13;9.77;;;5.30;;
52858;SDS011;38721;53.098;6.596;2023-03-23T05:01:40;6.95;;;5.22;;
52858;SDS011;38721;53.098;6.596;2023-03-23T05:04:10;8.18;;;4.45;;
52858;SDS011;38721;53.098;6.596;2023-03-23T05:06:38;7.13;;;4.10;;
52858;SDS011;38721;53.098;6.596;2023-03-23T05:09:03;10.43;;;3.65;;
52858;SDS011;38721;53.098;6.596;2023-03-23T05:11:32;7.30;;;3.25;;
52858;SDS011;38721;53.098;6.596;2023-03-23T05:14:03;8.38;;;3.17;;
52858;SDS011;38721;53.098;6.596;2023-03-23T05:16:29;6.70;;;2.70;;
52858;SDS011;38721;53.098;6.596;2023-03-23T05:18:55;10.07;;;2.95;;
52858;SDS011;38721;53.098;6.596;2023-03-23T05:21:22;10.38;;;3.20;;
52858;SDS011;38721;53.098;6.596;2023-03-23T05:23:48;8.02;;;2.90;;
52858;SDS011;38721;53.098;6.596;2023-03-23T05:26:23;9.38;;;3.10;;
52858;SDS011;38721;53.098;6.596;2023-03-23T05:28:53;8.57;;;2.65;;
52858;SDS011;38721;53.098;6.596;2023-03-23T05:31:19;5.60;;;2.72;;
52858;SDS011;38721;53.098;6.596;2023-03-23T05:33:46;6.25;;;2.40;;
52858;SDS011;38721;53.098;6.596;2023-03-23T05:36:15;9.95;;;2.70;;
52858;SDS011;38721;53.098;6.596;2023-03-23T05:38:41;8.50;;;2.78;;
52858;SDS011;38721;53.098;6.596;2023-03-23T05:41:14;10.38;;;2.75;;
52858;SDS011;38721;53.098;6.596;2023-03-23T05:43:40;11.30;;;2.80;;
52858;SDS011;38721;53.098;6.596;2023-03-23T05:46:06;6.72;;;2.60;;
52858;SDS011;38721;53.098;6.596;2023-03-23T05:48:32;12.20;;;2.92;;
52858;SDS011;38721;53.098;6.596;2023-03-23T05:50:59;9.23;;;2.70;;
52858;SDS011;38721;53.098;6.596;2023-03-23T05:53:25;10.90;;;2.85;;
52858;SDS011;38721;53.098;6.596;2023-03-23T05:55:57;15.23;;;2.70;;
52858;SDS011;38721;53.098;6.596;2023-03-23T05:58:24;15.27;;;3.03;;
52858;SDS011;38721;53.098;6.596;2023-03-23T06:00:50;10.68;;;2.90;;
52858;SDS011;38721;53.098;6.596;2023-03-23T06:03:22;15.57;;;3.30;;
52858;SDS011;38721;53.098;6.596;2023-03-23T06:05:48;15.00;;;3.78;;
52858;SDS011;38721;53.098;6.596;2023-03-23T06:08:14;16.02;;;3.38;;
52858;SDS011;38721;53.098;6.596;2023-03-23T06:10:39;13.65;;;3.10;;
52858;SDS011;38721;53.098;6.596;2023-03-23T06:13:05;9.77;;;2.70;;
52858;SDS011;38721;53.098;6.596;2023-03-23T06:15:31;14.30;;;3.30;;
52858;SDS011;38721;53.098;6.596;2023-03-23T06:20:42;13.57;;;2.97;;
52858;SDS011;38721;53.098;6.596;2023-03-23T06:23:09;13.52;;;3.45;;
52858;SDS011;38721;53.098;6.596;2023-03-23T06:25:34;16.98;;;3.47;;
52858;SDS011;38721;53.098;6.596;2023-03-23T06:28:00;19.75;;;3.97;;
52858;SDS011;38721;53.098;6.596;2023-03-23T06:30:26;14.30;;;3.33;;
52858;SDS011;38721;53.098;6.596;2023-03-23T06:32:53;15.73;;;3.53;;
52858;SDS011;38721;53.098;6.596;2023-03-23T06:35:20;14.65;;;3.40;;
52858;SDS011;38721;53.098;6.596;2023-03-23T06:37:46;12.23;;;2.83;;
52858;SDS011;38721;53.098;6.596;2023-03-23T06:40:12;19.55;;;3.63;;
52858;SDS011;38721;53.098;6.596;2023-03-23T06:42:37;18.85;;;3.40;;
52858;SDS011;38721;53.098;6.596;2023-03-23T06:45:04;14.27;;;3.50;;
52858;SDS011;38721;53.098;6.596;2023-03-23T06:47:30;14.25;;;3.65;;
52858;SDS011;38721;53.098;6.596;2023-03-23T06:49:56;12.27;;;3.45;;
52858;SDS011;38721;53.098;6.596;2023-03-23T06:52:25;12.40;;;3.08;;
52858;SDS011;38721;53.098;6.596;2023-03-23T06:54:51;14.00;;;3.65;;
52858;SDS011;38721;53.098;6.596;2023-03-23T06:57:18;17.00;;;4.05;;
52858;SDS011;38721;53.098;6.596;2023-03-23T06:59:44;12.43;;;3.70;;
52858;SDS011;38721;53.098;6.596;2023-03-23T07:02:11;12.82;;;3.58;;
52858;SDS011;38721;53.098;6.596;2023-03-23T07:04:39;15.00;;;3.10;;
52858;SDS011;38721;53.098;6.596;2023-03-23T07:07:07;18.27;;;3.85;;
52858;SDS011;38721;53.098;6.596;2023-03-23T07:09:34;18.02;;;3.53;;
52858;SDS011;38721;53.098;6.596;2023-03-23T07:12:00;15.80;;;3.80;;
52858;SDS011;38721;53.098;6.596;2023-03-23T07:14:26;18.05;;;4.07;;
52858;SDS011;38721;53.098;6.596;2023-03-23T07:16:51;12.82;;;3.40;;
52858;SDS011;38721;53.098;6.596;2023-03-23T07:19:18;13.25;;;4.00;;
52858;SDS011;38721;53.098;6.596;2023-03-23T07:21:44;19.15;;;4.35;;
52858;SDS011;38721;53.098;6.596;2023-03-23T07:24:11;14.98;;;4.18;;
52858;SDS011;38721;53.098;6.596;2023-03-23T07:26:39;22.45;;;4.03;;
52858;SDS011;38721;53.098;6.596;2023-03-23T07:29:06;21.20;;;3.92;;
52858;SDS011;38721;53.098;6.596;2023-03-23T07:31:33;20.95;;;4.70;;
52858;SDS011;38721;53.098;6.596;2023-03-23T07:33:59;17.35;;;4.30;;
52858;SDS011;38721;53.098;6.596;2023-03-23T07:36:25;22.85;;;4.28;;
52858;SDS011;38721;53.098;6.596;2023-03-23T07:38:51;18.85;;;4.43;;
52858;SDS011;38721;53.098;6.596;2023-03-23T07:41:16;22.73;;;4.40;;
52858;SDS011;38721;53.098;6.596;2023-03-23T07:43:42;22.13;;;3.95;;
52858;SDS011;38721;53.098;6.596;2023-03-23T07:46:08;16.73;;;3.80;;
52858;SDS011;38721;53.098;6.596;2023-03-23T07:48:34;20.98;;;4.57;;
52858;SDS011;38721;53.098;6.596;2023-03-23T07:50:59;20.23;;;4.60;;
52858;SDS011;38721;53.098;6.596;2023-03-23T07:53:25;21.17;;;4.05;;
52858;SDS011;38721;53.098;6.596;2023-03-23T07:55:51;25.10;;;5.15;;
52858;SDS011;38721;53.098;6.596;2023-03-23T07:58:17;20.33;;;5.07;;
52858;SDS011;38721;53.098;6.596;2023-03-23T08:00:45;19.48;;;4.22;;
52858;SDS011;38721;53.098;6.596;2023-03-23T08:03:13;18.40;;;4.30;;
52858;SDS011;38721;53.098;6.596;2023-03-23T08:05:39;33.47;;;5.30;;
52858;SDS011;38721;53.098;6.596;2023-03-23T08:08:07;19.30;;;3.75;;
52858;SDS011;38721;53.098;6.596;2023-03-23T08:10:34;20.88;;;4.45;;
52858;SDS011;38721;53.098;6.596;2023-03-23T08:13:02;18.60;;;4.40;;
52858;SDS011;38721;53.098;6.596;2023-03-23T08:15:29;24.27;;;5.03;;
52858;SDS011;38721;53.098;6.596;2023-03-23T08:17:54;21.40;;;4.25;;
52858;SDS011;38721;53.098;6.596;2023-03-23T08:20:21;17.88;;;3.58;;
52858;SDS011;38721;53.098;6.596;2023-03-23T08:22:54;23.13;;;4.63;;
52858;SDS011;38721;53.098;6.596;2023-03-23T08:25:22;19.20;;;3.80;;
52858;SDS011;38721;53.098;6.596;2023-03-23T08:27:50;20.67;;;4.32;;
52858;SDS011;38721;53.098;6.596;2023-03-23T08:30:16;20.70;;;4.80;;
52858;SDS011;38721;53.098;6.596;2023-03-23T08:32:44;25.88;;;4.85;;
52858;SDS011;38721;53.098;6.596;2023-03-23T08:35:11;21.13;;;4.68;;
52858;SDS011;38721;53.098;6.596;2023-03-23T08:37:38;18.63;;;4.15;;
52858;SDS011;38721;53.098;6.596;2023-03-23T08:40:04;21.02;;;5.20;;
52858;SDS011;38721;53.098;6.596;2023-03-23T08:42:34;19.48;;;4.55;;
52858;SDS011;38721;53.098;6.596;2023-03-23T08:45:03;22.92;;;4.60;;
52858;SDS011;38721;53.098;6.596;2023-03-23T08:47:34;23.40;;;4.63;;
52858;SDS011;38721;53.098;6.596;2023-03-23T08:50:00;19.20;;;4.60;;
52858;SDS011;38721;53.098;6.596;2023-03-23T08:52:28;27.65;;;5.30;;
52858;SDS011;38721;53.098;6.596;2023-03-23T08:54:54;23.77;;;4.57;;
52858;SDS011;38721;53.098;6.596;2023-03-23T08:57:21;29.17;;;5.68;;
52858;SDS011;38721;53.098;6.596;2023-03-23T08:59:48;21.02;;;4.93;;
52858;SDS011;38721;53.098;6.596;2023-03-23T09:02:17;21.67;;;4.93;;
52858;SDS011;38721;53.098;6.596;2023-03-23T09:04:43;20.38;;;4.82;;
52858;SDS011;38721;53.098;6.596;2023-03-23T09:07:12;23.80;;;4.85;;
52858;SDS011;38721;53.098;6.596;2023-03-23T09:09:40;24.48;;;5.22;;
52858;SDS011;38721;53.098;6.596;2023-03-23T09:12:06;24.73;;;5.70;;
52858;SDS011;38721;53.098;6.596;2023-03-23T09:14:35;27.33;;;5.53;;
52858;SDS011;38721;53.098;6.596;2023-03-23T09:17:01;28.65;;;5.20;;
52858;SDS011;38721;53.098;6.596;2023-03-23T09:19:28;22.77;;;4.50;;
52858;SDS011;38721;53.098;6.596;2023-03-23T09:21:54;22.88;;;5.15;;
52858;SDS011;38721;53.098;6.596;2023-03-23T09:24:20;17.75;;;5.03;;
52858;SDS011;38721;53.098;6.596;2023-03-23T09:26:46;20.20;;;4.55;;
52858;SDS011;38721;53.098;6.596;2023-03-23T09:29:12;20.30;;;4.30;;
52858;SDS011;38721;53.098;6.596;2023-03-23T09:31:38;22.75;;;4.68;;
52858;SDS011;38721;53.098;6.596;2023-03-23T09:34:08;16.92;;;4.80;;
52858;SDS011;38721;53.098;6.596;2023-03-23T09:36:35;21.30;;;4.68;;
52858;SDS011;38721;53.098;6.596;2023-03-23T09:39:07;29.27;;;5.03;;
52858;SDS011;38721;53.098;6.596;2023-03-23T09:41:44;21.13;;;4.10;;
52858;SDS011;38721;53.098;6.596;2023-03-23T09:52:27;23.67;;;5.22;;
52858;SDS011;38721;53.098;6.596;2023-03-23T09:55:13;19.92;;;4.55;;
52858;SDS011;38721;53.098;6.596;2023-03-23T09:57:51;19.95;;;4.28;;
52858;SDS011;38721;53.098;6.596;2023-03-23T10:00:43;16.80;;;4.07;;
52858;SDS011;38721;53.098;6.596;2023-03-23T10:03:17;19.23;;;4.82;;
52858;SDS011;38721;53.098;6.596;2023-03-23T10:05:50;17.98;;;3.92;;
52858;SDS011;38721;53.098;6.596;2023-03-23T10:10:59;20.45;;;4.32;;
52858;SDS011;38721;53.098;6.596;2023-03-23T10:16:24;19.65;;;4.13;;
52858;SDS011;38721;53.098;6.596;2023-03-23T10:18:56;16.08;;;3.60;;
52858;SDS011;38721;53.098;6.596;2023-03-23T10:21:41;16.55;;;3.67;;
52858;SDS011;38721;53.098;6.596;2023-03-23T10:24:21;22.40;;;4.45;;
52858;SDS011;38721;53.098;6.596;2023-03-23T10:29:57;18.20;;;4.30;;
52858;SDS011;38721;53.098;6.596;2023-03-23T10:32:51;18.00;;;3.90;;
52858;SDS011;38721;53.098;6.596;2023-03-23T10:35:21;16.58;;;3.90;;
52858;SDS011;38721;53.098;6.596;2023-03-23T10:38:02;17.20;;;4.20;;
52858;SDS011;38721;53.098;6.596;2023-03-23T10:40:31;18.65;;;4.25;;
52858;SDS011;38721;53.098;6.596;2023-03-23T10:42:58;16.92;;;3.80;;
52858;SDS011;38721;53.098;6.596;2023-03-23T10:45:26;14.07;;;3.35;;
52858;SDS011;38721;53.098;6.596;2023-03-23T10:48:14;17.15;;;3.60;;
52858;SDS011;38721;53.098;6.596;2023-03-23T10:50:45;15.50;;;3.40;;
52858;SDS011;38721;53.098;6.596;2023-03-23T10:53:25;13.20;;;3.88;;
52858;SDS011;38721;53.098;6.596;2023-03-23T10:55:57;15.73;;;3.65;;
52858;SDS011;38721;53.098;6.596;2023-03-23T10:58:34;16.25;;;3.65;;
52858;SDS011;38721;53.098;6.596;2023-03-23T11:01:01;17.13;;;4.05;;
52858;SDS011;38721;53.098;6.596;2023-03-23T11:06:02;20.35;;;3.80;;
52858;SDS011;38721;53.098;6.596;2023-03-23T11:08:32;13.82;;;3.95;;
52858;SDS011;38721;53.098;6.596;2023-03-23T11:11:18;13.85;;;3.42;;
52858;SDS011;38721;53.098;6.596;2023-03-23T11:13:49;17.73;;;4.10;;
52858;SDS011;38721;53.098;6.596;2023-03-23T11:16:24;15.20;;;4.20;;
52858;SDS011;38721;53.098;6.596;2023-03-23T11:18:51;13.82;;;3.08;;
52858;SDS011;38721;53.098;6.596;2023-03-23T11:21:17;10.15;;;3.15;;
52858;SDS011;38721;53.098;6.596;2023-03-23T11:23:50;12.40;;;3.08;;
52858;SDS011;38721;53.098;6.596;2023-03-23T11:26:23;15.27;;;3.60;;
52858;SDS011;38721;53.098;6.596;2023-03-23T11:31:36;17.60;;;3.25;;
52858;SDS011;38721;53.098;6.596;2023-03-23T11:34:10;9.85;;;2.95;;
52858;SDS011;38721;53.098;6.596;2023-03-23T11:36:41;12.05;;;2.42;;
52858;SDS011;38721;53.098;6.596;2023-03-23T11:39:24;14.02;;;2.90;;
52858;SDS011;38721;53.098;6.596;2023-03-23T11:41:52;14.15;;;3.13;;
52858;SDS011;38721;53.098;6.596;2023-03-23T11:44:21;13.73;;;3.25;;
52858;SDS011;38721;53.098;6.596;2023-03-23T11:47:02;12.90;;;3.60;;
52858;SDS011;38721;53.098;6.596;2023-03-23T11:52:25;10.40;;;3.03;;
52858;SDS011;38721;53.098;6.596;2023-03-23T11:55:00;11.02;;;3.17;;
52858;SDS011;38721;53.098;6.596;2023-03-23T11:57:34;13.52;;;2.78;;
52858;SDS011;38721;53.098;6.596;2023-03-23T12:00:01;12.73;;;2.90;;
52858;SDS011;38721;53.098;6.596;2023-03-23T12:11:03;12.55;;;3.08;;
52858;SDS011;38721;53.098;6.596;2023-03-23T12:16:39;8.77;;;2.83;;
52858;SDS011;38721;53.098;6.596;2023-03-23T12:22:42;14.27;;;3.03;;
52858;SDS011;38721;53.098;6.596;2023-03-23T12:25:15;11.98;;;2.90;;
52858;SDS011;38721;53.098;6.596;2023-03-23T12:30:52;11.02;;;2.83;;
52858;SDS011;38721;53.098;6.596;2023-03-23T12:39:25;10.68;;;2.40;;
52858;SDS011;38721;53.098;6.596;2023-03-23T12:45:43;11.48;;;2.80;;
52858;SDS011;38721;53.098;6.596;2023-03-23T12:48:21;11.68;;;2.50;;
52858;SDS011;38721;53.098;6.596;2023-03-23T12:53:58;10.73;;;2.80;;
52858;SDS011;38721;53.098;6.596;2023-03-23T13:07:53;14.40;;;3.05;;
52858;SDS011;38721;53.098;6.596;2023-03-23T13:10:27;11.63;;;2.95;;
52858;SDS011;38721;53.098;6.596;2023-03-23T13:12:59;17.10;;;3.20;;
52858;SDS011;38721;53.098;6.596;2023-03-23T13:20:58;10.40;;;2.50;;
52858;SDS011;38721;53.098;6.596;2023-03-23T13:23:42;10.27;;;2.97;;
52858;SDS011;38721;53.098;6.596;2023-03-23T13:26:13;11.20;;;3.35;;
52858;SDS011;38721;53.098;6.596;2023-03-23T13:31:22;10.15;;;2.90;;
52858;SDS011;38721;53.098;6.596;2023-03-23T13:34:05;13.07;;;3.38;;
52858;SDS011;38721;53.098;6.596;2023-03-23T13:36:59;17.02;;;3.30;;
52858;SDS011;38721;53.098;6.596;2023-03-23T13:39:29;15.23;;;3.10;;
52858;SDS011;38721;53.098;6.596;2023-03-23T13:47:28;14.40;;;2.93;;
52858;SDS011;38721;53.098;6.596;2023-03-23T13:50:02;12.50;;;3.75;;
52858;SDS011;38721;53.098;6.596;2023-03-23T13:57:54;12.57;;;2.80;;
52858;SDS011;38721;53.098;6.596;2023-03-23T14:05:35;11.73;;;3.05;;
52858;SDS011;38721;53.098;6.596;2023-03-23T14:10:48;16.52;;;3.67;;
52858;SDS011;38721;53.098;6.596;2023-03-23T14:13:19;18.30;;;3.63;;
52858;SDS011;38721;53.098;6.596;2023-03-23T14:15:57;14.52;;;3.63;;
52858;SDS011;38721;53.098;6.596;2023-03-23T14:18:39;12.10;;;3.40;;
52858;SDS011;38721;53.098;6.596;2023-03-23T14:21:13;13.73;;;3.05;;
52858;SDS011;38721;53.098;6.596;2023-03-23T14:23:41;12.23;;;3.37;;
52858;SDS011;38721;53.098;6.596;2023-03-23T14:26:12;10.40;;;2.58;;
52858;SDS011;38721;53.098;6.596;2023-03-23T14:28:44;12.60;;;2.95;;
52858;SDS011;38721;53.098;6.596;2023-03-23T14:31:14;11.35;;;2.80;;
52858;SDS011;38721;53.098;6.596;2023-03-23T14:33:44;11.20;;;2.75;;
52858;SDS011;38721;53.098;6.596;2023-03-23T14:36:10;16.77;;;3.40;;
52858;SDS011;38721;53.098;6.596;2023-03-23T14:38:36;9.05;;;3.00;;
52858;SDS011;38721;53.098;6.596;2023-03-23T14:41:04;12.13;;;3.10;;
52858;SDS011;38721;53.098;6.596;2023-03-23T14:43:30;12.93;;;3.20;;
52858;SDS011;38721;53.098;6.596;2023-03-23T14:46:02;9.98;;;2.70;;
52858;SDS011;38721;53.098;6.596;2023-03-23T14:48:32;10.93;;;2.90;;
52858;SDS011;38721;53.098;6.596;2023-03-23T14:50:58;8.90;;;2.90;;
52858;SDS011;38721;53.098;6.596;2023-03-23T14:53:35;7.47;;;2.63;;
52858;SDS011;38721;53.098;6.596;2023-03-23T14:56:11;7.85;;;2.47;;
52858;SDS011;38721;53.098;6.596;2023-03-23T14:58:42;10.98;;;2.70;;
52858;SDS011;38721;53.098;6.596;2023-03-23T15:01:14;11.50;;;2.97;;
52858;SDS011;38721;53.098;6.596;2023-03-23T15:06:25;9.50;;;2.47;;
52858;SDS011;38721;53.098;6.596;2023-03-23T15:08:56;13.13;;;2.63;;
52858;SDS011;38721;53.098;6.596;2023-03-23T15:11:29;10.25;;;2.47;;
52858;SDS011;38721;53.098;6.596;2023-03-23T15:13:58;9.30;;;2.83;;
52858;SDS011;38721;53.098;6.596;2023-03-23T15:16:32;10.80;;;2.55;;
52858;SDS011;38721;53.098;6.596;2023-03-23T15:19:03;7.55;;;2.35;;
52858;SDS011;38721;53.098;6.596;2023-03-23T15:21:35;8.63;;;2.53;;
52858;SDS011;38721;53.098;6.596;2023-03-23T15:24:34;8.05;;;2.55;;
52858;SDS011;38721;53.098;6.596;2023-03-23T15:29:31;6.85;;;2.30;;
52858;SDS011;38721;53.098;6.596;2023-03-23T15:31:57;8.68;;;2.70;;
52858;SDS011;38721;53.098;6.596;2023-03-23T15:34:30;9.73;;;2.47;;
52858;SDS011;38721;53.098;6.596;2023-03-23T15:37:05;7.55;;;2.30;;
52858;SDS011;38721;53.098;6.596;2023-03-23T15:39:41;8.55;;;2.58;;
52858;SDS011;38721;53.098;6.596;2023-03-23T15:42:07;8.27;;;2.00;;
52858;SDS011;38721;53.098;6.596;2023-03-23T15:52:36;7.28;;;2.70;;
52858;SDS011;38721;53.098;6.596;2023-03-23T15:55:02;9.90;;;2.45;;
52858;SDS011;38721;53.098;6.596;2023-03-23T15:57:28;8.93;;;2.42;;
52858;SDS011;38721;53.098;6.596;2023-03-23T15:59:54;12.40;;;2.92;;
52858;SDS011;38721;53.098;6.596;2023-03-23T16:02:20;11.73;;;2.70;;
52858;SDS011;38721;53.098;6.596;2023-03-23T16:04:48;9.32;;;3.00;;
52858;SDS011;38721;53.098;6.596;2023-03-23T16:07:22;11.77;;;2.92;;
52858;SDS011;38721;53.098;6.596;2023-03-23T16:09:48;14.93;;;3.47;;
52858;SDS011;38721;53.098;6.596;2023-03-23T16:12:13;9.18;;;3.10;;
52858;SDS011;38721;53.098;6.596;2023-03-23T16:14:39;13.82;;;2.92;;
52858;SDS011;38721;53.098;6.596;2023-03-23T16:17:05;10.48;;;2.80;;
52858;SDS011;38721;53.098;6.596;2023-03-23T16:19:36;12.25;;;2.92;;
52858;SDS011;38721;53.098;6.596;2023-03-23T16:22:02;10.32;;;2.85;;
52858;SDS011;38721;53.098;6.596;2023-03-23T16:24:30;9.98;;;2.90;;
52858;SDS011;38721;53.098;6.596;2023-03-23T16:26:56;14.10;;;3.22;;
52858;SDS011;38721;53.098;6.596;2023-03-23T16:29:21;11.68;;;2.65;;
52858;SDS011;38721;53.098;6.596;2023-03-23T16:31:47;12.60;;;3.15;;
52858;SDS011;38721;53.098;6.596;2023-03-23T16:34:16;11.75;;;2.88;;
52858;SDS011;38721;53.098;6.596;2023-03-23T16:36:41;13.10;;;3.85;;
52858;SDS011;38721;53.098;6.596;2023-03-23T16:39:08;14.77;;;3.58;;
52858;SDS011;38721;53.098;6.596;2023-03-23T16:41:37;12.13;;;3.20;;
52858;SDS011;38721;53.098;6.596;2023-03-23T16:44:03;13.88;;;3.22;;
52858;SDS011;38721;53.098;6.596;2023-03-23T16:46:28;12.65;;;3.78;;
52858;SDS011;38721;53.098;6.596;2023-03-23T16:48:54;19.73;;;4.10;;
52858;SDS011;38721;53.098;6.596;2023-03-23T16:51:20;15.50;;;3.00;;
52858;SDS011;38721;53.098;6.596;2023-03-23T16:53:46;13.60;;;3.28;;
52858;SDS011;38721;53.098;6.596;2023-03-23T16:56:11;12.63;;;3.53;;
52858;SDS011;38721;53.098;6.596;2023-03-23T16:58:37;12.60;;;3.60;;
52858;SDS011;38721;53.098;6.596;2023-03-23T17:01:03;10.57;;;2.95;;
52858;SDS011;38721;53.098;6.596;2023-03-23T17:03:32;14.48;;;3.42;;
52858;SDS011;38721;53.098;6.596;2023-03-23T17:06:00;11.85;;;3.20;;
52858;SDS011;38721;53.098;6.596;2023-03-23T17:08:26;13.18;;;3.53;;